createdAt,value
2023-01-27T00:01:15.393Z,15.90
2023-01-27T00:03:48.471Z,17.25
2023-01-27T00:06:21.092Z,16.85
2023-01-27T00:08:54.119Z,17.60
2023-01-27T00:11:45.299Z,18.85
2023-01-27T00:14:18.198Z,17.73
2023-01-27T00:16:50.757Z,19.73
2023-01-27T00:19:23.724Z,20.98
2023-01-27T00:22:14.833Z,19.75
2023-01-27T00:24:47.832Z,20.63
2023-01-27T00:27:20.373Z,20.00
2023-01-27T00:29:54.284Z,18.48
2023-01-27T00:32:45.394Z,17.85
2023-01-27T00:35:19.100Z,17.48
2023-01-27T00:37:51.730Z,17.85
2023-01-27T00:40:25.527Z,17.13
2023-01-27T00:42:58.024Z,17.15
2023-01-27T00:45:49.047Z,16.00
2023-01-27T00:48:21.543Z,18.70
2023-01-27T00:50:54.736Z,17.48
2023-01-27T00:53:27.646Z,17.25
2023-01-27T00:56:00.543Z,18.75
2023-01-27T00:58:33.241Z,16.23
2023-01-27T01:01:07.741Z,17.33
2023-01-27T01:03:40.365Z,18.35
2023-01-27T01:06:14.679Z,16.23
2023-01-27T01:08:47.561Z,15.77
2023-01-27T01:11:23.672Z,16.83
2023-01-27T01:13:56.793Z,16.77
2023-01-27T01:16:29.969Z,16.23
2023-01-27T01:19:02.545Z,18.08
2023-01-27T01:21:35.435Z,16.25
2023-01-27T01:24:09.211Z,15.45
2023-01-27T01:26:42.122Z,15.80
2023-01-27T01:29:14.768Z,16.13
2023-01-27T01:31:50.735Z,16.80
2023-01-27T01:34:23.310Z,15.38
2023-01-27T01:36:56.124Z,15.80
2023-01-27T01:39:28.712Z,17.65
2023-01-27T01:42:01.736Z,15.20
2023-01-27T01:44:34.474Z,16.60
2023-01-27T01:47:12.553Z,17.73
2023-01-27T01:49:46.793Z,14.13
2023-01-27T01:52:23.369Z,16.27
2023-01-27T01:54:57.034Z,16.13
2023-01-27T01:57:39.719Z,15.57
2023-01-27T02:00:16.012Z,17.27
2023-01-27T02:02:55.063Z,17.00
2023-01-27T02:05:29.893Z,17.15
2023-01-27T02:08:02.822Z,15.90
2023-01-27T02:10:36.176Z,16.92
2023-01-27T02:13:13.530Z,15.13
2023-01-27T02:15:46.285Z,16.85
2023-01-27T02:18:19.247Z,17.35
2023-01-27T02:20:54.031Z,15.88
2023-01-27T02:23:45.844Z,15.02
2023-01-27T02:26:20.934Z,17.15
2023-01-27T02:28:56.073Z,17.95
2023-01-27T02:31:28.980Z,16.77
2023-01-27T02:34:04.330Z,16.75
2023-01-27T02:36:58.239Z,16.60
2023-01-27T02:39:34.415Z,16.13
2023-01-27T02:42:07.938Z,15.63
2023-01-27T02:44:41.044Z,16.38
2023-01-27T02:47:13.623Z,16.77
2023-01-27T02:49:46.780Z,16.88
2023-01-27T02:52:19.427Z,17.38
2023-01-27T02:54:52.416Z,17.40
2023-01-27T02:57:25.769Z,16.85
2023-01-27T03:00:14.907Z,17.77
2023-01-27T03:02:47.516Z,16.95
2023-01-27T03:05:20.532Z,18.30
2023-01-27T03:07:54.161Z,17.13
2023-01-27T03:10:27.484Z,17.67
2023-01-27T03:13:00.729Z,17.27
2023-01-27T03:15:51.838Z,16.17
2023-01-27T03:18:24.459Z,15.02
2023-01-27T03:21:01.139Z,15.00
2023-01-27T03:23:34.869Z,16.38
2023-01-27T03:26:10.484Z,15.80
2023-01-27T03:29:06.351Z,14.23
2023-01-27T03:31:41.259Z,17.42
2023-01-27T03:34:15.425Z,14.57
2023-01-27T03:37:12.243Z,16.63
2023-01-27T03:40:03.814Z,16.90
2023-01-27T03:42:55.816Z,16.50
2023-01-27T03:45:47.012Z,16.63
2023-01-27T03:48:21.352Z,16.42
2023-01-27T03:50:57.340Z,17.67
2023-01-27T03:53:30.325Z,15.90
2023-01-27T03:56:03.100Z,15.77
2023-01-27T03:58:36.942Z,16.30
2023-01-27T04:01:14.661Z,18.00
2023-01-27T04:04:06.556Z,17.30
2023-01-27T04:06:56.750Z,17.17
2023-01-27T04:09:30.199Z,18.95
2023-01-27T04:12:04.829Z,16.88
2023-01-27T04:14:39.276Z,19.50
2023-01-27T04:17:19.128Z,18.20
2023-01-27T04:19:52.386Z,19.25
2023-01-27T04:22:24.865Z,18.52
2023-01-27T04:24:57.760Z,18.65
2023-01-27T04:27:30.232Z,17.45
2023-01-27T04:30:03.224Z,18.35
2023-01-27T04:32:35.949Z,18.40
2023-01-27T04:35:09.006Z,18.45
2023-01-27T04:37:41.711Z,16.50
2023-01-27T04:40:14.785Z,17.42
2023-01-27T04:42:47.398Z,16.60
2023-01-27T04:45:20.695Z,19.02
2023-01-27T04:47:53.174Z,16.73
2023-01-27T04:50:26.242Z,17.70
2023-01-27T04:52:58.912Z,17.70
2023-01-27T04:55:31.825Z,19.00
2023-01-27T04:58:04.627Z,19.17
2023-01-27T05:00:37.499Z,20.05
2023-01-27T05:03:10.658Z,18.75
2023-01-27T05:05:43.550Z,18.85
2023-01-27T05:08:16.146Z,18.17
2023-01-27T05:10:49.623Z,20.25
2023-01-27T05:13:22.420Z,17.45
2023-01-27T05:16:08.514Z,17.08
2023-01-27T05:18:42.064Z,17.17
2023-01-27T05:21:16.510Z,16.70
2023-01-27T05:23:49.482Z,13.98
2023-01-27T05:26:23.721Z,11.15
2023-01-27T05:28:59.801Z,8.77
2023-01-27T05:31:32.917Z,10.80
2023-01-27T05:34:05.631Z,10.95
2023-01-27T05:36:38.551Z,11.70
2023-01-27T05:39:11.974Z,13.75
2023-01-27T05:41:44.922Z,13.57
2023-01-27T05:44:17.403Z,17.98
2023-01-27T05:46:50.338Z,16.50
2023-01-27T05:49:23.030Z,15.75
2023-01-27T05:51:55.975Z,14.68
2023-01-27T05:54:28.510Z,14.30
2023-01-27T05:57:01.543Z,15.73
2023-01-27T05:59:34.150Z,14.63
2023-01-27T06:02:07.079Z,13.63
2023-01-27T06:04:39.649Z,11.98
2023-01-27T06:07:12.489Z,10.98
2023-01-27T06:09:45.197Z,10.73
2023-01-27T06:12:18.268Z,11.35
2023-01-27T06:14:50.886Z,11.02
2023-01-27T06:17:23.738Z,10.30
2023-01-27T06:19:56.351Z,10.35
2023-01-27T06:22:29.154Z,8.55
2023-01-27T06:25:01.626Z,8.60
2023-01-27T06:27:34.589Z,8.90
2023-01-27T06:30:07.517Z,9.95
2023-01-27T06:32:40.438Z,8.98
2023-01-27T06:35:13.329Z,9.23
2023-01-27T06:37:46.695Z,8.88
2023-01-27T06:40:19.517Z,7.95
2023-01-27T06:42:52.502Z,6.30
2023-01-27T06:45:25.117Z,6.38
2023-01-27T06:48:01.651Z,6.25
2023-01-27T06:50:34.412Z,7.43
2023-01-27T06:53:07.654Z,6.00
2023-01-27T06:55:42.066Z,7.00
2023-01-27T06:58:15.928Z,5.90
2023-01-27T07:00:48.727Z,6.55
2023-01-27T07:03:21.689Z,6.50
2023-01-27T07:05:54.373Z,7.18
2023-01-27T07:08:27.259Z,6.63
2023-01-27T07:11:02.312Z,7.60
2023-01-27T07:13:35.349Z,6.22
2023-01-27T07:16:08.035Z,5.88
2023-01-27T07:18:41.266Z,5.95
2023-01-27T07:21:13.794Z,7.97
2023-01-27T07:23:47.255Z,6.82
2023-01-27T07:26:25.106Z,6.88
2023-01-27T07:28:58.901Z,6.97
2023-01-27T07:31:31.498Z,7.25
2023-01-27T07:34:04.410Z,6.30
2023-01-27T07:36:36.872Z,8.40
2023-01-27T07:39:09.901Z,7.50
2023-01-27T07:41:42.964Z,7.18
2023-01-27T07:44:21.955Z,7.45
2023-01-27T07:46:54.696Z,7.28
2023-01-27T07:49:27.783Z,6.85
2023-01-27T07:52:00.345Z,6.20
2023-01-27T07:54:33.292Z,5.50
2023-01-27T07:57:05.820Z,6.78
2023-01-27T07:59:38.735Z,5.32
2023-01-27T08:02:11.551Z,5.95
2023-01-27T08:04:52.870Z,7.00
2023-01-27T08:07:25.698Z,6.43
2023-01-27T08:09:58.794Z,7.72
2023-01-27T08:12:31.373Z,5.97
2023-01-27T08:15:04.747Z,5.65
2023-01-27T08:17:37.403Z,7.50
2023-01-27T08:20:11.684Z,8.68
2023-01-27T08:22:44.982Z,5.88
2023-01-27T08:25:17.901Z,7.20
2023-01-27T08:27:51.205Z,7.45
2023-01-27T08:30:24.332Z,8.80
2023-01-27T08:32:57.274Z,6.88
2023-01-27T08:35:30.580Z,7.68
2023-01-27T08:38:03.064Z,9.90
2023-01-27T08:40:35.969Z,7.30
2023-01-27T08:43:09.307Z,8.65
2023-01-27T08:45:42.543Z,6.88
2023-01-27T08:48:15.098Z,7.65
2023-01-27T08:50:48.199Z,8.55
2023-01-27T08:53:22.327Z,5.35
2023-01-27T08:55:59.508Z,6.57
2023-01-27T08:58:33.622Z,6.50
2023-01-27T09:01:07.104Z,6.05
2023-01-27T09:03:39.684Z,6.78
2023-01-27T09:06:13.362Z,6.28
2023-01-27T09:09:05.851Z,6.78
2023-01-27T09:11:40.121Z,6.13
2023-01-27T09:14:12.671Z,6.25
2023-01-27T09:16:45.543Z,5.65
2023-01-27T09:19:18.111Z,6.18
2023-01-27T09:21:50.980Z,6.03
2023-01-27T09:24:23.696Z,7.03
2023-01-27T09:26:56.564Z,5.65
2023-01-27T09:29:29.944Z,5.07
2023-01-27T09:32:03.390Z,6.10
2023-01-27T09:34:36.366Z,5.07
2023-01-27T09:37:10.219Z,5.30
2023-01-27T09:39:48.340Z,5.72
2023-01-27T09:42:40.384Z,6.47
2023-01-27T09:45:25.208Z,6.30
2023-01-27T09:48:10.630Z,6.18
2023-01-27T09:50:45.675Z,5.53
2023-01-27T09:53:33.671Z,5.35
2023-01-27T09:56:20.701Z,7.20
2023-01-27T09:59:12.404Z,5.97
2023-01-27T10:02:07.919Z,5.28
2023-01-27T10:04:43.631Z,5.00
2023-01-27T10:07:34.649Z,5.60
2023-01-27T10:10:13.771Z,5.15
2023-01-27T10:12:46.433Z,4.15
2023-01-27T10:15:33.087Z,4.80
2023-01-27T10:18:11.529Z,4.00
2023-01-27T10:21:03.415Z,4.78
2023-01-27T10:23:44.957Z,5.22
2023-01-27T10:28:56.381Z,5.40
2023-01-27T10:31:35.216Z,4.70
2023-01-27T10:34:23.439Z,5.03
2023-01-27T10:36:59.874Z,5.05
2023-01-27T10:39:37.643Z,7.15
2023-01-27T10:42:18.558Z,5.70
2023-01-27T10:45:01.787Z,4.65
2023-01-27T10:47:47.185Z,6.03
2023-01-27T10:50:30.687Z,5.13
2023-01-27T10:53:41.955Z,5.13
2023-01-27T10:56:20.295Z,5.07
2023-01-27T10:59:01.923Z,4.20
2023-01-27T11:01:37.806Z,4.38
2023-01-27T11:04:14.284Z,4.18
2023-01-27T11:06:47.704Z,5.93
2023-01-27T11:09:29.495Z,4.82
2023-01-27T11:12:03.857Z,5.18
2023-01-27T11:14:47.974Z,6.80
2023-01-27T11:17:37.555Z,5.15
2023-01-27T11:20:13.586Z,4.75
2023-01-27T11:22:49.072Z,6.25
2023-01-27T11:25:30.186Z,5.20
2023-01-27T11:28:15.164Z,5.50
2023-01-27T11:31:04.907Z,6.15
2023-01-27T11:33:46.300Z,5.75
2023-01-27T11:38:51.509Z,6.93
2023-01-27T11:41:24.808Z,7.30
2023-01-27T11:43:57.372Z,6.70
2023-01-27T11:46:31.558Z,6.57
2023-01-27T11:49:04.743Z,6.32
2023-01-27T11:51:41.116Z,6.07
2023-01-27T11:54:19.077Z,4.93
2023-01-27T11:56:51.959Z,5.50
2023-01-27T11:59:26.704Z,6.45
2023-01-27T12:02:01.877Z,5.93
2023-01-27T12:04:52.687Z,7.25
2023-01-27T12:07:44.470Z,6.13
2023-01-27T12:10:31.601Z,6.68
2023-01-27T12:13:18.048Z,5.70
2023-01-27T12:15:55.622Z,6.32
2023-01-27T12:18:32.072Z,7.22
2023-01-27T12:21:07.000Z,8.15
2023-01-27T12:23:47.405Z,8.55
2023-01-27T12:26:36.924Z,7.32
2023-01-27T12:29:26.527Z,6.95
2023-01-27T12:32:00.657Z,7.32
2023-01-27T12:34:36.678Z,7.90
2023-01-27T12:37:19.669Z,6.90
2023-01-27T12:40:00.786Z,6.78
2023-01-27T12:42:36.389Z,7.57
2023-01-27T12:45:27.513Z,6.82
2023-01-27T12:48:02.025Z,6.18
2023-01-27T12:50:36.123Z,5.93
2023-01-27T12:53:13.230Z,6.65
2023-01-27T12:55:56.279Z,6.15
2023-01-27T12:58:28.781Z,6.57
2023-01-27T13:01:20.768Z,5.93
2023-01-27T13:03:56.150Z,8.13
2023-01-27T13:06:32.381Z,7.03
2023-01-27T13:09:05.073Z,7.13
2023-01-27T13:11:40.400Z,5.93
2023-01-27T13:14:19.108Z,6.25
2023-01-27T13:16:53.481Z,7.20
2023-01-27T13:19:38.424Z,6.40
2023-01-27T13:22:17.992Z,7.03
2023-01-27T13:24:53.344Z,5.05
2023-01-27T13:27:26.610Z,7.32
2023-01-27T13:30:03.806Z,7.07
2023-01-27T13:32:37.216Z,5.47
2023-01-27T13:35:15.912Z,6.65
2023-01-27T13:37:52.096Z,5.55
2023-01-27T13:40:45.122Z,6.10
2023-01-27T13:43:34.110Z,7.05
2023-01-27T13:46:06.914Z,6.50
2023-01-27T13:48:42.900Z,7.15
2023-01-27T13:51:17.212Z,5.63
2023-01-27T13:53:54.456Z,4.78
2023-01-27T13:56:46.981Z,6.18
2023-01-27T13:59:35.282Z,6.68
2023-01-27T14:02:29.114Z,6.82
2023-01-27T14:05:20.441Z,5.47
2023-01-27T14:07:58.831Z,5.63
2023-01-27T14:10:42.208Z,6.03
2023-01-27T14:13:33.209Z,5.82
2023-01-27T14:16:12.573Z,6.10
2023-01-27T14:18:47.108Z,7.10
2023-01-27T14:21:45.451Z,7.20
2023-01-27T14:24:31.526Z,6.50
2023-01-27T14:27:16.852Z,5.28
2023-01-27T14:30:05.027Z,5.82
2023-01-27T14:32:42.269Z,4.53
2023-01-27T14:35:33.262Z,6.00
2023-01-27T14:38:06.134Z,6.88
2023-01-27T14:40:53.751Z,6.40
2023-01-27T14:43:45.353Z,5.22
2023-01-27T14:46:24.194Z,5.13
2023-01-27T14:49:06.089Z,4.85
2023-01-27T14:51:57.099Z,4.40
2023-01-27T14:54:35.779Z,4.97
2023-01-27T14:57:09.195Z,6.35
2023-01-27T14:59:42.136Z,7.13
2023-01-27T15:02:17.727Z,6.72
2023-01-27T15:05:09.288Z,5.97
2023-01-27T15:07:41.760Z,6.53
2023-01-27T15:10:30.807Z,6.18
2023-01-27T15:13:06.365Z,5.40
2023-01-27T15:15:59.259Z,9.05
2023-01-27T15:18:50.400Z,7.75
2023-01-27T15:21:33.295Z,8.77
2023-01-27T15:24:05.855Z,7.55
2023-01-27T15:26:39.775Z,8.15
2023-01-27T15:29:14.114Z,6.85
2023-01-27T15:32:07.161Z,8.02
2023-01-27T15:34:39.787Z,7.50
2023-01-27T15:37:14.581Z,8.07
2023-01-27T15:40:07.041Z,8.77
2023-01-27T15:43:02.950Z,10.60
2023-01-27T15:45:39.430Z,8.23
2023-01-27T15:48:12.300Z,9.25
2023-01-27T15:50:49.192Z,11.20
2023-01-27T15:53:30.513Z,12.88
2023-01-27T15:56:03.549Z,9.85
2023-01-27T15:58:46.429Z,7.32
2023-01-27T16:01:27.950Z,7.20
2023-01-27T16:04:06.735Z,7.63
2023-01-27T16:06:52.041Z,7.28
2023-01-27T16:09:31.387Z,9.50
2023-01-27T16:12:22.613Z,8.55
2023-01-27T16:15:01.324Z,8.07
2023-01-27T16:17:34.080Z,10.73
2023-01-27T16:20:16.201Z,9.45
2023-01-27T16:22:52.456Z,10.18
2023-01-27T16:25:45.689Z,13.10
2023-01-27T16:28:31.339Z,14.27
2023-01-27T16:31:06.892Z,12.27
2023-01-27T16:33:44.340Z,12.02
2023-01-27T16:36:26.045Z,13.60
2023-01-27T16:39:03.458Z,12.07
2023-01-27T16:41:38.187Z,11.70
2023-01-27T16:44:10.874Z,11.80
2023-01-27T16:46:50.862Z,7.97
2023-01-27T16:49:27.613Z,7.97
2023-01-27T16:52:02.026Z,7.43
2023-01-27T16:54:36.417Z,7.25
2023-01-27T16:57:22.377Z,8.73
2023-01-27T16:59:56.097Z,7.05
2023-01-27T17:02:30.373Z,9.52
2023-01-27T17:05:06.561Z,7.93
2023-01-27T17:07:39.502Z,9.48
2023-01-27T17:10:18.963Z,9.30
2023-01-27T17:12:57.813Z,10.85
2023-01-27T17:15:34.683Z,10.77
2023-01-27T17:18:11.750Z,10.75
2023-01-27T17:20:46.945Z,8.20
2023-01-27T17:23:24.975Z,12.50
2023-01-27T17:25:57.696Z,8.38
2023-01-27T17:28:30.601Z,10.93
2023-01-27T17:31:07.602Z,11.30
2023-01-27T17:33:40.668Z,12.70
2023-01-27T17:36:14.649Z,9.65
2023-01-27T17:38:49.100Z,11.35
2023-01-27T17:41:24.742Z,13.00
2023-01-27T17:44:01.695Z,14.05
2023-01-27T17:46:34.621Z,13.57
2023-01-27T17:49:12.845Z,11.07
2023-01-27T17:51:47.151Z,12.27
2023-01-27T17:54:20.591Z,13.55
2023-01-27T17:56:59.052Z,15.60
2023-01-27T17:59:32.284Z,11.73
2023-01-27T18:02:07.754Z,11.48
2023-01-27T18:04:42.749Z,11.65
2023-01-27T18:07:15.783Z,12.95
2023-01-27T18:09:52.997Z,14.05
2023-01-27T18:12:29.035Z,12.02
2023-01-27T18:15:20.250Z,13.95
2023-01-27T18:17:59.396Z,11.45
2023-01-27T18:20:33.829Z,11.45
2023-01-27T18:23:12.754Z,12.60
2023-01-27T18:25:53.604Z,10.07
2023-01-27T18:28:27.757Z,13.40
2023-01-27T18:31:01.349Z,12.75
2023-01-27T18:33:34.325Z,11.77
2023-01-27T18:36:19.414Z,12.25
2023-01-27T18:38:52.158Z,18.85
2023-01-27T18:41:27.513Z,16.77
2023-01-27T18:44:03.305Z,20.77
2023-01-27T18:46:36.236Z,13.10
2023-01-27T18:49:10.723Z,11.60
2023-01-27T18:51:43.569Z,14.43
2023-01-27T18:54:16.150Z,10.82
2023-01-27T18:56:49.079Z,9.18
2023-01-27T18:59:21.559Z,9.65
2023-01-27T19:01:54.535Z,11.18
2023-01-27T19:04:27.540Z,9.70
2023-01-27T19:07:00.604Z,8.10
2023-01-27T19:09:33.452Z,9.57
2023-01-27T19:12:06.481Z,8.20
2023-01-27T19:14:39.284Z,8.40
2023-01-27T19:17:24.525Z,8.65
2023-01-27T19:19:57.146Z,10.13
2023-01-27T19:22:30.576Z,9.65
2023-01-27T19:25:03.095Z,10.05
2023-01-27T19:27:37.332Z,10.13
2023-01-27T19:30:16.040Z,10.77
2023-01-27T19:32:48.925Z,11.32
2023-01-27T19:35:22.961Z,13.18
2023-01-27T19:37:56.549Z,12.80
2023-01-27T19:40:29.897Z,12.32
2023-01-27T19:43:02.797Z,13.25
2023-01-27T19:45:35.552Z,11.18
2023-01-27T19:48:15.818Z,11.27
2023-01-27T19:50:48.803Z,13.65
2023-01-27T19:53:21.792Z,11.93
2023-01-27T19:55:57.458Z,14.15
2023-01-27T19:58:31.023Z,14.57
2023-01-27T20:01:03.700Z,13.68
2023-01-27T20:03:36.576Z,11.75
2023-01-27T20:06:15.923Z,11.35
2023-01-27T20:08:52.470Z,10.48
2023-01-27T20:11:43.137Z,12.70
2023-01-27T20:14:19.397Z,13.63
2023-01-27T20:16:52.613Z,13.07
2023-01-27T20:19:25.524Z,14.05
2023-01-27T20:21:59.277Z,13.90
2023-01-27T20:24:32.388Z,13.07
2023-01-27T20:27:04.949Z,13.07
2023-01-27T20:29:37.888Z,11.88
2023-01-27T20:32:10.470Z,15.98
2023-01-27T20:34:43.414Z,15.10
2023-01-27T20:37:16.101Z,12.30
2023-01-27T20:39:49.113Z,13.20
2023-01-27T20:42:21.755Z,11.02
2023-01-27T20:44:54.689Z,15.98
2023-01-27T20:47:27.158Z,17.55
2023-01-27T20:50:00.614Z,17.40
2023-01-27T20:52:36.552Z,13.68
2023-01-27T20:55:10.056Z,12.77
2023-01-27T20:57:42.657Z,12.80
2023-01-27T21:00:19.616Z,11.35
2023-01-27T21:02:52.102Z,12.00
2023-01-27T21:05:25.212Z,15.23
2023-01-27T21:07:57.768Z,14.35
2023-01-27T21:10:30.792Z,14.95
2023-01-27T21:13:03.356Z,11.15
2023-01-27T21:15:36.243Z,15.10
2023-01-27T21:18:08.822Z,16.33
2023-01-27T21:20:46.667Z,13.20
2023-01-27T21:23:20.908Z,13.82
2023-01-27T21:25:54.223Z,14.57
2023-01-27T21:28:27.127Z,14.75
2023-01-27T21:31:05.431Z,17.65
2023-01-27T21:33:39.256Z,15.07
2023-01-27T21:36:12.459Z,15.63
2023-01-27T21:38:44.963Z,12.77
2023-01-27T21:41:37.290Z,15.93
2023-01-27T21:47:01.191Z,16.97
2023-01-27T21:49:34.621Z,15.90
2023-01-27T21:52:07.501Z,15.30
2023-01-27T21:54:40.046Z,15.80
2023-01-27T21:57:12.966Z,16.65
2023-01-27T21:59:45.812Z,16.15
2023-01-27T22:02:18.670Z,14.13
2023-01-27T22:04:51.410Z,15.02
2023-01-27T22:07:24.421Z,18.45
2023-01-27T22:09:57.007Z,15.02
2023-01-27T22:12:29.964Z,17.15
2023-01-27T22:15:02.701Z,17.58
2023-01-27T22:17:36.538Z,19.00
2023-01-27T22:20:15.643Z,16.92
2023-01-27T22:22:48.665Z,17.45
2023-01-27T22:25:21.955Z,16.38
2023-01-27T22:27:55.490Z,16.75
2023-01-27T22:30:28.067Z,15.90
2023-01-27T22:33:00.978Z,15.27
2023-01-27T22:35:34.417Z,14.63
2023-01-27T22:38:07.500Z,14.38
2023-01-27T22:40:40.345Z,15.57
2023-01-27T22:43:13.285Z,16.30
2023-01-27T22:45:45.929Z,14.88
2023-01-27T22:48:18.849Z,16.90
2023-01-27T22:50:51.352Z,16.02
2023-01-27T22:53:24.216Z,15.10
2023-01-27T22:56:00.905Z,15.23
2023-01-27T22:58:33.820Z,17.60
2023-01-27T23:01:07.126Z,17.35
2023-01-27T23:03:40.105Z,17.80
2023-01-27T23:06:12.970Z,16.25
2023-01-27T23:08:45.926Z,17.17
2023-01-27T23:11:18.510Z,19.30
2023-01-27T23:13:51.527Z,17.52
2023-01-27T23:16:24.102Z,17.45
2023-01-27T23:18:57.042Z,21.25
2023-01-27T23:21:31.762Z,17.45
2023-01-27T23:24:07.323Z,17.13
2023-01-27T23:26:48.375Z,19.83
2023-01-27T23:29:27.269Z,17.00
2023-01-27T23:32:02.026Z,18.98
2023-01-27T23:34:35.040Z,18.85
2023-01-27T23:37:08.031Z,18.00
2023-01-27T23:39:46.010Z,19.35
2023-01-27T23:42:18.806Z,20.90
2023-01-27T23:44:51.751Z,17.92
2023-01-27T23:47:24.225Z,20.55
2023-01-27T23:49:57.204Z,18.02
2023-01-27T23:52:31.378Z,17.05
2023-01-27T23:55:04.435Z,19.90
2023-01-27T23:57:37.418Z,15.88
